Time;durP1;ratioP1;P1;durP2;ratioP2;P2;SDS_P1;SDS_P2;PMS_P1;PMS_P2;Temp;Humidity;BMP_temperature;BMP_pressure;BME280_temperature;BME280_humidity;BME280_pressure;Samples;Min_cycle;Max_cycle;Signal;HPM_P1;HPM_P2
2023/10/23 00:00:06;;;;;;;9.00;3.72;;;;;9.70;98299.00;;;;5034009;28;20824;-66
2023/10/23 00:02:38;;;;;;;7.07;3.08;;;;;9.50;98300.00;;;;5038991;28;20072;-66
2023/10/23 00:05:05;;;;;;;4.85;2.63;;;;;9.40;98303.00;;;;5055886;28;20049;-65
2023/10/23 00:07:32;;;;;;;7.15;2.80;;;;;9.30;98304.00;;;;5057341;28;20060;-65
2023/10/23 00:09:59;;;;;;;4.57;2.60;;;;;9.30;98299.00;;;;5057625;28;20109;-65
2023/10/23 00:12:25;;;;;;;8.27;3.15;;;;;9.40;98303.00;;;;5057384;28;20030;-65
2023/10/23 00:14:56;;;;;;;6.80;3.05;;;;;9.40;98311.00;;;;5055798;28;20072;-66
2023/10/23 00:17:23;;;;;;;9.20;3.33;;;;;9.40;98312.00;;;;5056462;28;20069;-65
2023/10/23 00:19:49;;;;;;;6.82;2.70;;;;;9.30;98312.00;;;;5056983;28;20089;-65
2023/10/23 00:22:16;;;;;;;8.27;3.35;;;;;9.20;98311.00;;;;5057430;28;20096;-65
2023/10/23 00:24:43;;;;;;;7.28;3.20;;;;;9.30;98305.00;;;;5044633;28;20124;-66
2023/10/23 00:27:09;;;;;;;5.93;2.83;;;;;9.30;98306.00;;;;5054883;28;20029;-66
2023/10/23 00:29:37;;;;;;;7.25;2.78;;;;;9.20;98303.00;;;;5057296;28;20041;-65
2023/10/23 00:32:04;;;;;;;6.28;2.80;;;;;9.10;98296.00;;;;5056495;28;20101;-65
2023/10/23 00:34:31;;;;;;;6.72;2.78;;;;;9.10;98302.00;;;;5055659;28;20025;-66
2023/10/23 00:36:58;;;;;;;4.20;2.72;;;;;9.30;98302.00;;;;5052825;28;20105;-65
2023/10/23 00:39:25;;;;;;;6.90;3.00;;;;;9.40;98295.00;;;;5054188;28;20037;-65
2023/10/23 00:41:51;;;;;;;8.55;3.30;;;;;9.40;98301.00;;;;5056900;28;20045;-65
2023/10/23 00:44:18;;;;;;;8.13;2.85;;;;;9.40;98302.00;;;;5057137;28;20064;-64
2023/10/23 00:46:45;;;;;;;5.07;2.40;;;;;9.20;98303.00;;;;5057883;28;20045;-65
2023/10/23 00:49:12;;;;;;;7.03;2.60;;;;;9.10;98308.00;;;;5057913;28;20038;-65
2023/10/23 00:51:39;;;;;;;7.07;2.97;;;;;9.00;98307.00;;;;5041137;28;20101;-65
2023/10/23 00:54:06;;;;;;;9.90;3.38;;;;;9.00;98306.00;;;;5057002;28;20076;-65
2023/10/23 00:56:34;;;;;;;5.85;2.60;;;;;9.00;98299.00;;;;5057384;28;20072;-65
2023/10/23 00:59:01;;;;;;;7.78;3.13;;;;;8.90;98308.00;;;;5055700;28;20065;-65
2023/10/23 01:01:31;;;;;;;4.60;2.47;;;;;8.80;98302.00;;;;5037402;28;20041;-65
2023/10/23 01:03:59;;;;;;;4.43;2.75;;;;;8.60;98308.00;;;;5014688;28;20127;-64
2023/10/23 01:06:27;;;;;;;8.27;3.03;;;;;8.50;98298.00;;;;5034205;28;20064;-64
2023/10/23 01:08:54;;;;;;;7.95;3.22;;;;;8.50;98308.00;;;;5031246;28;20060;-64
2023/10/23 01:11:21;;;;;;;13.65;3.30;;;;;8.50;98294.00;;;;5031179;28;20088;-64
2023/10/23 01:13:48;;;;;;;10.32;3.13;;;;;8.60;98295.00;;;;5035172;28;20067;-64
2023/10/23 01:16:14;;;;;;;10.45;3.33;;;;;8.60;98297.00;;;;5036010;28;20124;-64
2023/10/23 01:18:41;;;;;;;7.45;3.20;;;;;8.60;98299.00;;;;5035668;28;20120;-64
2023/10/23 01:21:08;;;;;;;8.20;2.63;;;;;8.60;98300.00;;;;5035941;28;20508;-64
2023/10/23 01:23:36;;;;;;;8.63;3.00;;;;;8.50;98298.00;;;;5034151;28;20049;-64
2023/10/23 01:26:03;;;;;;;7.07;2.97;;;;;8.30;98303.00;;;;5034732;28;20050;-64
2023/10/23 01:28:30;;;;;;;8.48;3.53;;;;;8.20;98305.00;;;;5035437;28;20041;-64
2023/10/23 01:30:56;;;;;;;7.38;3.05;;;;;8.20;98301.00;;;;5034744;28;20400;-65
2023/10/23 01:33:23;;;;;;;11.70;3.35;;;;;8.20;98302.00;;;;5018197;28;20577;-65
2023/10/23 01:35:50;;;;;;;10.90;2.50;;;;;8.10;98304.00;;;;5034582;28;20041;-65
2023/10/23 01:38:18;;;;;;;12.85;4.15;;;;;8.10;98313.00;;;;5034517;28;20145;-65
2023/10/23 01:40:44;;;;;;;4.07;2.20;;;;;8.00;98309.00;;;;5034404;28;20068;-65
2023/10/23 01:43:11;;;;;;;10.40;2.67;;;;;8.00;98307.00;;;;5017560;28;20061;-65
2023/10/23 01:45:38;;;;;;;7.03;3.05;;;;;7.90;98303.00;;;;5035000;28;20116;-65
2023/10/23 01:48:05;;;;;;;4.20;2.53;;;;;7.90;98300.00;;;;5035178;28;20490;-65
2023/10/23 01:50:32;;;;;;;7.30;2.33;;;;;8.00;98294.00;;;;5035114;28;20525;-65
2023/10/23 01:52:59;;;;;;;8.88;2.55;;;;;8.00;98302.00;;;;5036332;28;20042;-65
2023/10/23 01:55:26;;;;;;;5.53;2.35;;;;;8.00;98299.00;;;;5034953;28;20042;-65
2023/10/23 01:57:52;;;;;;;3.90;2.08;;;;;8.00;98305.00;;;;5033765;28;20058;-66
2023/10/23 02:00:19;;;;;;;7.82;2.35;;;;;8.00;98301.00;;;;5036203;28;20041;-66
2023/10/23 02:02:46;;;;;;;6.07;2.17;;;;;8.00;98299.00;;;;5033986;28;20056;-66
2023/10/23 02:05:12;;;;;;;5.55;2.22;;;;;8.10;98297.00;;;;5022013;28;20148;-66
2023/10/23 02:07:39;;;;;;;5.45;2.40;;;;;8.10;98296.00;;;;5039908;28;20052;-66
2023/10/23 02:10:06;;;;;;;9.35;2.45;;;;;8.10;98293.00;;;;5017729;28;20395;-67
2023/10/23 02:12:33;;;;;;;4.70;2.17;;;;;8.10;98299.00;;;;5033919;28;20049;-65
2023/10/23 02:15:00;;;;;;;8.27;1.90;;;;;8.10;98295.00;;;;5035633;28;20117;-65
2023/10/23 02:17:26;;;;;;;3.83;1.90;;;;;8.00;98293.00;;;;5034340;28;20049;-66
2023/10/23 02:19:53;;;;;;;5.03;2.28;;;;;7.90;98300.00;;;;5033464;28;20053;-66
2023/10/23 02:22:20;;;;;;;7.57;2.05;;;;;7.90;98294.00;;;;5017158;28;20136;-65
2023/10/23 02:24:48;;;;;;;5.18;2.35;;;;;7.80;98300.00;;;;5032038;28;20738;-65
2023/10/23 02:27:15;;;;;;;6.40;1.85;;;;;7.70;98291.00;;;;5033429;28;20050;-66
2023/10/23 02:29:41;;;;;;;8.57;1.80;;;;;7.70;98288.00;;;;5033399;28;20140;-66
2023/10/23 02:32:08;;;;;;;5.03;1.85;;;;;7.70;98297.00;;;;5036770;28;20073;-66
2023/10/23 02:34:36;;;;;;;8.20;2.42;;;;;7.70;98300.00;;;;5034429;28;20041;-65
2023/10/23 02:37:04;;;;;;;8.25;1.75;;;;;7.80;98295.00;;;;5033394;28;20050;-66
2023/10/23 02:39:30;;;;;;;5.78;2.00;;;;;7.70;98296.00;;;;5033088;28;20053;-66
2023/10/23 02:41:57;;;;;;;7.20;2.20;;;;;7.60;98301.00;;;;5033218;28;20045;-66
2023/10/23 02:44:24;;;;;;;3.03;1.75;;;;;7.50;98300.00;;;;5016194;28;20395;-66
2023/10/23 02:46:50;;;;;;;6.25;2.13;;;;;7.50;98300.00;;;;5034218;28;20045;-65
2023/10/23 02:49:18;;;;;;;6.07;2.13;;;;;7.50;98288.00;;;;5034069;28;20041;-65
2023/10/23 02:51:46;;;;;;;9.50;2.25;;;;;7.50;98289.00;;;;5034038;28;20547;-65
2023/10/23 02:54:13;;;;;;;4.20;1.80;;;;;7.40;98290.00;;;;5032177;28;20163;-64
2023/10/23 02:56:40;;;;;;;4.40;2.03;;;;;7.40;98293.00;;;;5034128;28;20042;-65
2023/10/23 02:59:06;;;;;;;5.85;2.20;;;;;7.50;98284.00;;;;5016588;28;20054;-64
2023/10/23 03:01:34;;;;;;;5.95;2.10;;;;;7.50;98289.00;;;;5032715;28;20056;-65
2023/10/23 03:04:01;;;;;;;4.40;2.00;;;;;7.60;98285.00;;;;5033436;28;20049;-65
2023/10/23 03:06:28;;;;;;;2.63;1.92;;;;;7.70;98280.00;;;;5033878;28;20041;-65
2023/10/23 03:08:57;;;;;;;7.38;2.10;;;;;7.70;98285.00;;;;5016502;28;20045;-64
2023/10/23 03:11:25;;;;;;;5.82;2.28;;;;;7.70;98294.00;;;;5018445;28;20076;-64
2023/10/23 03:13:52;;;;;;;2.85;2.17;;;;;7.90;98294.00;;;;5037173;28;20066;-64
2023/10/23 03:16:19;;;;;;;6.43;2.00;;;;;7.90;98283.00;;;;5036960;28;20057;-64
2023/10/23 03:18:45;;;;;;;4.82;2.10;;;;;7.90;98278.00;;;;5036626;28;20517;-64
2023/10/23 03:21:12;;;;;;;4.03;1.95;;;;;7.80;98293.00;;;;5045619;28;20049;-65
2023/10/23 03:23:39;;;;;;;15.52;6.90;;;;;7.80;98280.00;;;;5043858;28;20049;-65
2023/10/23 03:26:05;;;;;;;4.20;2.38;;;;;7.80;98283.00;;;;5043212;28;20497;-64
2023/10/23 03:28:32;;;;;;;8.10;1.88;;;;;7.80;98285.00;;;;5038624;28;20076;-65
2023/10/23 03:31:03;;;;;;;5.93;2.13;;;;;7.80;98291.00;;;;5034519;28;20400;-65
2023/10/23 03:33:30;;;;;;;4.63;2.08;;;;;7.80;98280.00;;;;5031764;28;20132;-65
2023/10/23 03:35:57;;;;;;;4.30;1.80;;;;;7.60;98279.00;;;;5031755;28;20045;-65
2023/10/23 03:38:23;;;;;;;4.78;1.90;;;;;7.60;98273.00;;;;5032158;28;20453;-64
2023/10/23 03:40:59;;;;;;;5.50;2.10;;;;;7.70;98273.00;;;;5031956;28;20052;-63
2023/10/23 03:43:26;;;;;;;3.08;2.05;;;;;7.80;98274.00;;;;5031619;28;20425;-63
2023/10/23 03:45:53;;;;;;;4.78;1.95;;;;;7.90;98281.00;;;;5032815;28;20041;-63
2023/10/23 03:48:20;;;;;;;6.45;2.50;;;;;7.90;98279.00;;;;5033246;28;20057;-63
2023/10/23 03:50:47;;;;;;;6.47;2.20;;;;;7.90;98290.00;;;;5032914;28;20516;-63
2023/10/23 03:53:13;;;;;;;3.80;2.50;;;;;7.60;98279.00;;;;5032982;28;20443;-63
2023/10/23 03:55:41;;;;;;;6.13;4.10;;;;;7.50;98267.00;;;;5031332;28;20121;-64
2023/10/23 03:58:07;;;;;;;5.43;2.42;;;;;7.50;98270.00;;;;5031487;28;20049;-65
2023/10/23 04:00:34;;;;;;;3.85;2.15;;;;;7.40;98274.00;;;;5032639;28;20045;-65
2023/10/23 04:03:01;;;;;;;4.15;2.22;;;;;7.30;98268.00;;;;5031792;28;20053;-65
2023/10/23 04:05:27;;;;;;;6.10;1.88;;;;;7.20;98268.00;;;;5031136;28;20045;-65
2023/10/23 04:07:54;;;;;;;3.33;2.10;;;;;7.10;98272.00;;;;5031485;28;20056;-66
2023/10/23 04:10:21;;;;;;;6.45;2.00;;;;;7.00;98261.00;;;;5032591;28;20521;-65
2023/10/23 04:12:47;;;;;;;4.60;2.38;;;;;7.00;98259.00;;;;5031687;28;20128;-65
2023/10/23 04:15:14;;;;;;;4.47;1.90;;;;;7.00;98271.00;;;;5014365;28;20045;-65
2023/10/23 04:17:41;;;;;;;5.93;2.53;;;;;6.90;98266.00;;;;5031483;28;20052;-65
2023/10/23 04:20:07;;;;;;;3.30;1.80;;;;;6.90;98262.00;;;;5031329;28;20096;-65
2023/10/23 04:22:34;;;;;;;4.93;2.00;;;;;6.80;98256.00;;;;5032662;28;20100;-65
2023/10/23 04:25:00;;;;;;;6.75;2.22;;;;;6.80;98251.00;;;;5031948;28;20091;-65
2023/10/23 04:27:27;;;;;;;7.53;2.83;;;;;6.90;98257.00;;;;5032463;28;20121;-66
2023/10/23 04:29:54;;;;;;;6.43;3.30;;;;;6.90;98255.00;;;;5032340;28;20120;-65
2023/10/23 04:32:21;;;;;;;9.45;3.83;;;;;7.00;98257.00;;;;5032614;28;20069;-66
2023/10/23 04:34:47;;;;;;;9.82;5.30;;;;;7.00;98255.00;;;;5032061;28;20045;-65
2023/10/23 04:37:14;;;;;;;9.07;3.40;;;;;7.10;98260.00;;;;5032658;28;20132;-65
2023/10/23 04:39:40;;;;;;;5.68;2.83;;;;;7.10;98252.00;;;;5032422;28;20045;-65
2023/10/23 04:42:07;;;;;;;6.03;2.67;;;;;7.10;98258.00;;;;5031229;28;20132;-66
2023/10/23 04:44:34;;;;;;;5.93;2.55;;;;;7.00;98254.00;;;;5032112;28;20129;-67
2023/10/23 04:47:00;;;;;;;2.97;2.45;;;;;7.10;98259.00;;;;5032429;28;20084;-65
2023/10/23 04:49:28;;;;;;;10.20;5.97;;;;;7.00;98253.00;;;;5033321;28;20041;-66
2023/10/23 04:51:54;;;;;;;18.98;8.45;;;;;6.90;98246.00;;;;5032842;28;20045;-65
2023/10/23 04:54:21;;;;;;;7.78;3.58;;;;;6.80;98252.00;;;;5032066;28;20056;-64
2023/10/23 04:56:47;;;;;;;8.10;3.47;;;;;6.80;98249.00;;;;5032444;28;20112;-66
2023/10/23 04:59:14;;;;;;;6.32;2.83;;;;;6.90;98243.00;;;;5032013;28;20409;-64
2023/10/23 05:01:41;;;;;;;6.65;2.78;;;;;6.80;98245.00;;;;5031001;28;20049;-67
2023/10/23 05:04:07;;;;;;;6.60;2.72;;;;;6.80;98243.00;;;;5030262;28;20041;-63
2023/10/23 05:06:34;;;;;;;8.60;3.28;;;;;6.80;98231.00;;;;5032240;28;20045;-63
2023/10/23 05:09:01;;;;;;;5.10;2.80;;;;;6.70;98236.00;;;;5030718;28;20045;-63
2023/10/23 05:11:28;;;;;;;9.75;2.50;;;;;6.70;98236.00;;;;5030597;28;20054;-64
2023/10/23 05:13:54;;;;;;;4.25;2.72;;;;;6.60;98242.00;;;;5014145;28;20406;-64
2023/10/23 05:16:21;;;;;;;4.85;2.65;;;;;6.60;98230.00;;;;5031828;28;20047;-63
2023/10/23 05:18:47;;;;;;;5.50;2.60;;;;;6.60;98228.00;;;;5031800;28;20505;-64
2023/10/23 05:21:14;;;;;;;7.05;2.80;;;;;6.70;98234.00;;;;5014405;28;20532;-63
2023/10/23 05:23:41;;;;;;;4.63;2.60;;;;;6.70;98237.00;;;;5031393;28;20076;-64
2023/10/23 05:26:11;;;;;;;7.10;2.35;;;;;6.80;98238.00;;;;5031944;28;20038;-63
2023/10/23 05:28:40;;;;;;;6.60;2.50;;;;;6.80;98238.00;;;;5031984;28;20045;-63
2023/10/23 05:31:09;;;;;;;3.83;2.35;;;;;6.70;98229.00;;;;5031516;28;20049;-63
2023/10/23 05:33:36;;;;;;;8.15;3.08;;;;;6.60;98233.00;;;;5031957;28;20041;-63
2023/10/23 05:36:04;;;;;;;7.25;2.50;;;;;6.40;98227.00;;;;5031022;28;20066;-65
2023/10/23 05:38:31;;;;;;;4.40;2.90;;;;;6.40;98228.00;;;;5032090;28;20048;-65
2023/10/23 05:40:58;;;;;;;5.40;3.03;;;;;6.50;98223.00;;;;5032067;28;20606;-65
2023/10/23 05:43:26;;;;;;;4.57;3.15;;;;;6.60;98226.00;;;;5031529;28;20120;-66
2023/10/23 05:45:56;;;;;;;4.57;3.08;;;;;6.70;98226.00;;;;5030342;28;20048;-66
2023/10/23 05:48:24;;;;;;;8.10;3.60;;;;;6.80;98229.00;;;;5031638;28;20077;-66
2023/10/23 05:50:58;;;;;;;4.75;3.28;;;;;6.80;98234.00;;;;5030767;28;20053;-66
2023/10/23 05:53:26;;;;;;;7.47;3.28;;;;;6.90;98243.00;;;;5031755;28;20038;-66
2023/10/23 05:55:53;;;;;;;9.13;3.33;;;;;7.00;98231.00;;;;5037486;28;20037;-65
2023/10/23 05:58:20;;;;;;;6.57;3.63;;;;;6.90;98235.00;;;;5036785;28;20049;-64
2023/10/23 06:00:46;;;;;;;11.32;3.45;;;;;6.80;98232.00;;;;5036119;28;20081;-65
2023/10/23 06:03:13;;;;;;;9.02;3.17;;;;;6.70;98234.00;;;;5036285;28;20100;-66
2023/10/23 06:05:41;;;;;;;5.68;2.97;;;;;6.70;98233.00;;;;5035372;28;20052;-66
2023/10/23 06:08:09;;;;;;;7.10;2.63;;;;;6.60;98231.00;;;;5034937;28;20145;-66
2023/10/23 06:10:43;;;;;;;10.30;2.97;;;;;6.60;98231.00;;;;5035796;28;20045;-66
2023/10/23 06:13:09;;;;;;;;;;;;;6.70;98231.00;;;;5036042;28;20124;-66
2023/10/23 06:15:36;;;;;;;5.75;2.47;;;;;6.60;98236.00;;;;5034735;28;19921;-67
2023/10/23 06:18:03;;;;;;;10.15;3.30;;;;;6.60;98233.00;;;;5034608;28;20041;-68
2023/10/23 06:20:30;;;;;;;5.15;3.08;;;;;6.60;98230.00;;;;5034900;28;20517;-67
2023/10/23 06:23:00;;;;;;;8.02;3.50;;;;;6.60;98229.00;;;;5034699;28;20049;-68
2023/10/23 06:25:29;;;;;;;12.40;3.83;;;;;6.60;98244.00;;;;5034356;28;20061;-68
2023/10/23 06:27:56;;;;;;;4.28;2.97;;;;;6.60;98243.00;;;;5034638;28;20124;-66
2023/10/23 06:30:22;;;;;;;8.10;2.80;;;;;6.60;98247.00;;;;5033330;28;20068;-65
2023/10/23 06:32:49;;;;;;;4.38;2.50;;;;;6.60;98238.00;;;;5033366;28;20045;-66
2023/10/23 06:35:16;;;;;;;4.80;2.80;;;;;6.60;98230.00;;;;5032938;28;20049;-66
2023/10/23 06:37:43;;;;;;;5.95;3.45;;;;;6.60;98246.00;;;;5017117;28;20057;-66
2023/10/23 06:40:10;;;;;;;12.32;3.85;;;;;6.60;98246.00;;;;5033523;28;20492;-66
2023/10/23 06:42:36;;;;;;;7.88;3.08;;;;;6.60;98232.00;;;;5016856;28;20045;-67
2023/10/23 06:45:03;;;;;;;11.15;3.60;;;;;6.60;98218.00;;;;5033720;28;20092;-68
2023/10/23 06:47:30;;;;;;;6.22;3.33;;;;;6.60;98223.00;;;;5034228;28;20077;-67
2023/10/23 06:49:57;;;;;;;7.60;3.05;;;;;6.70;98227.00;;;;5034865;28;20053;-67
2023/10/23 06:52:23;;;;;;;9.75;3.40;;;;;6.70;98225.00;;;;5033810;28;20085;-67
2023/10/23 06:54:50;;;;;;;11.43;3.42;;;;;6.80;98224.00;;;;5033311;28;20068;-65
2023/10/23 06:57:16;;;;;;;5.82;2.78;;;;;6.90;98236.00;;;;5033141;28;20051;-65
2023/10/23 06:59:43;;;;;;;5.85;3.38;;;;;7.10;98250.00;;;;5034480;28;20132;-65
2023/10/23 07:02:10;;;;;;;5.28;3.15;;;;;7.30;98257.00;;;;5034260;28;20058;-66
2023/10/23 07:04:36;;;;;;;6.88;3.03;;;;;7.40;98254.00;;;;5033441;28;20041;-67
2023/10/23 07:07:03;;;;;;;4.10;3.03;;;;;7.40;98246.00;;;;5032696;28;20108;-66
2023/10/23 07:09:53;;;;;;;5.53;3.08;;;;;7.50;98240.00;;;;5033692;28;20065;-65
2023/10/23 07:12:20;;;;;;;8.68;3.92;;;;;7.60;98233.00;;;;5033754;28;20045;-67
2023/10/23 07:14:46;;;;;;;5.85;3.10;;;;;7.70;98243.00;;;;5032236;28;20125;-67
2023/10/23 07:17:13;;;;;;;7.18;2.83;;;;;7.70;98234.00;;;;5033670;28;20233;-67
2023/10/23 07:19:40;;;;;;;7.82;2.97;;;;;7.70;98230.00;;;;5033677;28;20114;-67
2023/10/23 07:22:06;;;;;;;16.80;4.20;;;;;7.80;98224.00;;;;5033736;28;20076;-67
2023/10/23 07:24:33;;;;;;;7.43;3.55;;;;;7.90;98221.00;;;;5033033;28;20059;-67
2023/10/23 07:26:59;;;;;;;11.20;4.20;;;;;8.00;98205.00;;;;5033414;28;20037;-67
2023/10/23 07:29:27;;;;;;;7.63;3.78;;;;;7.90;98215.00;;;;5032077;28;20049;-67
2023/10/23 07:31:53;;;;;;;5.75;3.30;;;;;7.90;98213.00;;;;5032277;28;20125;-66
2023/10/23 07:34:20;;;;;;;7.03;3.33;;;;;8.00;98214.00;;;;5031680;28;20049;-67
2023/10/23 07:36:46;;;;;;;6.47;3.75;;;;;8.10;98212.00;;;;5032399;28;20099;-67
2023/10/23 07:39:13;;;;;;;7.53;3.65;;;;;8.30;98217.00;;;;5033484;28;20041;-66
2023/10/23 07:41:40;;;;;;;6.00;3.20;;;;;8.50;98216.00;;;;5033335;28;20073;-67
2023/10/23 07:44:07;;;;;;;6.00;2.88;;;;;8.60;98221.00;;;;5032875;28;20052;-67
2023/10/23 07:46:33;;;;;;;6.60;3.63;;;;;8.60;98203.00;;;;5033367;28;20046;-67
2023/10/23 07:49:00;;;;;;;8.35;3.58;;;;;8.50;98200.00;;;;5032985;28;20042;-67
2023/10/23 07:51:26;;;;;;;10.85;4.65;;;;;8.50;98191.00;;;;5031602;28;20049;-67
2023/10/23 07:53:53;;;;;;;6.57;3.67;;;;;8.50;98186.00;;;;5031043;28;20247;-67
2023/10/23 07:56:20;;;;;;;13.10;3.97;;;;;8.60;98192.00;;;;5032836;28;20038;-66
2023/10/23 07:58:46;;;;;;;9.35;4.22;;;;;8.70;98206.00;;;;5016032;28;20132;-65
2023/10/23 08:01:13;;;;;;;9.95;3.80;;;;;8.90;98201.00;;;;5037267;28;20057;-66
2023/10/23 08:03:40;;;;;;;12.23;4.63;;;;;9.10;98209.00;;;;5036754;28;20503;-66
2023/10/23 08:06:09;;;;;;;8.32;3.78;;;;;9.20;98205.00;;;;5037367;28;20061;-65
2023/10/23 08:08:38;;;;;;;6.15;3.70;;;;;9.30;98211.00;;;;5037865;28;20056;-65
2023/10/23 08:11:07;;;;;;;9.73;4.30;;;;;9.30;98206.00;;;;5038023;28;20045;-66
2023/10/23 08:13:34;;;;;;;8.73;3.53;;;;;9.40;98200.00;;;;5021459;28;20080;-66
2023/10/23 08:16:01;;;;;;;7.53;3.50;;;;;9.50;98195.00;;;;5015115;28;20099;-65
2023/10/23 08:18:28;;;;;;;13.23;4.03;;;;;9.60;98202.00;;;;5018565;28;20049;-66
2023/10/23 08:21:14;;;;;;;7.72;3.88;;;;;9.80;98207.00;;;;5036631;28;20117;-66
2023/10/23 08:23:44;;;;;;;8.63;4.03;;;;;10.00;98207.00;;;;5050940;28;20041;-66
2023/10/23 08:26:11;;;;;;;6.57;4.20;;;;;10.20;98200.00;;;;5052580;28;20047;-67
2023/10/23 08:28:39;;;;;;;6.60;3.58;;;;;10.30;98190.00;;;;5038387;28;20049;-67
2023/10/23 08:31:08;;;;;;;7.15;3.40;;;;;10.40;98183.00;;;;5054547;28;20041;-67
2023/10/23 08:33:50;;;;;;;11.93;4.20;;;;;10.60;98174.00;;;;5051998;28;20088;-66
2023/10/23 08:36:17;;;;;;;11.00;4.40;;;;;10.70;98178.00;;;;5054092;28;20060;-67
2023/10/23 08:38:44;;;;;;;7.78;4.20;;;;;10.70;98176.00;;;;5054935;28;20049;-67
2023/10/23 08:41:12;;;;;;;8.40;3.92;;;;;10.70;98181.00;;;;5037544;28;20033;-67
2023/10/23 08:43:40;;;;;;;10.45;4.85;;;;;10.80;98185.00;;;;5053502;28;20033;-65
2023/10/23 08:46:09;;;;;;;12.82;5.75;;;;;11.00;98187.00;;;;5053531;28;20081;-66
2023/10/23 08:48:37;;;;;;;13.77;5.57;;;;;11.10;98188.00;;;;5053200;28;20063;-66
2023/10/23 08:51:06;;;;;;;12.90;5.18;;;;;11.10;98189.00;;;;5029127;28;20057;-66
2023/10/23 08:53:33;;;;;;;11.07;5.15;;;;;11.10;98186.00;;;;5046377;28;20042;-66
2023/10/23 08:56:03;;;;;;;11.57;5.70;;;;;11.20;98171.00;;;;5046270;28;20088;-66
2023/10/23 08:58:32;;;;;;;12.68;5.45;;;;;11.20;98171.00;;;;5046676;28;20534;-65
2023/10/23 09:00:59;;;;;;;12.68;5.70;;;;;11.30;98172.00;;;;5044095;28;20105;-65
2023/10/23 09:03:28;;;;;;;17.90;6.13;;;;;11.30;98165.00;;;;5043937;28;20060;-65
2023/10/23 09:06:18;;;;;;;14.20;5.85;;;;;11.40;98164.00;;;;5031434;28;20041;-65
2023/10/23 09:08:45;;;;;;;12.60;6.03;;;;;11.40;98171.00;;;;5044902;28;20088;-67
2023/10/23 09:11:12;;;;;;;15.43;5.95;;;;;11.40;98157.00;;;;5027012;28;20084;-66
2023/10/23 09:13:40;;;;;;;10.63;5.85;;;;;11.50;98165.00;;;;5026862;28;20054;-67
2023/10/23 09:16:09;;;;;;;11.85;5.47;;;;;11.60;98167.00;;;;5043958;28;20105;-67
2023/10/23 09:18:51;;;;;;;11.35;5.75;;;;;11.70;98167.00;;;;5044598;28;20045;-67
2023/10/23 09:21:18;;;;;;;11.65;5.07;;;;;11.80;98167.00;;;;5044952;28;20076;-67
2023/10/23 09:23:53;;;;;;;12.90;5.75;;;;;11.90;98167.00;;;;5042462;28;20053;-67
2023/10/23 09:26:21;;;;;;;10.55;5.75;;;;;12.10;98164.00;;;;5041250;28;20052;-67
2023/10/23 09:28:52;;;;;;;11.23;5.07;;;;;12.10;98160.00;;;;5042666;28;20072;-65
2023/10/23 09:31:20;;;;;;;13.35;5.90;;;;;12.20;98156.00;;;;5038787;28;20048;-67
2023/10/23 09:33:49;;;;;;;10.10;5.40;;;;;12.20;98150.00;;;;5041359;28;20050;-67
2023/10/23 09:36:17;;;;;;;10.30;4.97;;;;;12.30;98146.00;;;;5027305;28;20103;-67
2023/10/23 09:38:55;;;;;;;10.77;5.10;;;;;12.40;98156.00;;;;5026177;28;20047;-65
2023/10/23 09:41:22;;;;;;;13.32;4.78;;;;;12.50;98159.00;;;;5047433;28;20048;-66
2023/10/23 09:43:50;;;;;;;10.90;4.60;;;;;12.60;98163.00;;;;5030939;28;20402;-65
2023/10/23 09:46:19;;;;;;;11.80;4.90;;;;;12.60;98167.00;;;;5048537;28;20494;-66
2023/10/23 09:48:47;;;;;;;8.10;4.20;;;;;12.70;98170.00;;;;5050355;28;20418;-65
2023/10/23 09:51:15;;;;;;;9.73;4.90;;;;;12.90;98164.00;;;;5044522;28;20506;-65
2023/10/23 09:53:48;;;;;;;10.55;4.93;;;;;13.00;98155.00;;;;5044307;28;20053;-66
2023/10/23 09:56:20;;;;;;;10.77;4.70;;;;;13.10;98147.00;;;;5048722;28;20486;-66
2023/10/23 09:58:57;;;;;;;12.00;4.80;;;;;13.10;98139.00;;;;5044367;28;20061;-65
2023/10/23 10:01:36;;;;;;;9.18;4.45;;;;;13.10;98149.00;;;;5019266;28;20068;-66
2023/10/23 10:04:27;;;;;;;9.98;4.70;;;;;13.10;98156.00;;;;5036015;28;20103;-66
2023/10/23 10:06:56;;;;;;;13.35;4.50;;;;;13.20;98152.00;;;;5018189;28;20042;-67
2023/10/23 10:09:25;;;;;;;10.25;4.80;;;;;13.30;98153.00;;;;5017894;28;20049;-66
2023/10/23 10:11:55;;;;;;;8.00;4.78;;;;;13.40;98156.00;;;;5035502;28;20103;-66
2023/10/23 10:14:27;;;;;;;11.73;4.35;;;;;13.50;98152.00;;;;5034957;28;20116;-67
2023/10/23 10:16:56;;;;;;;11.25;3.67;;;;;13.50;98138.00;;;;5033911;28;20045;-66
2023/10/23 10:19:27;;;;;;;9.25;4.22;;;;;13.40;98133.00;;;;5033628;28;20049;-66
2023/10/23 10:22:11;;;;;;;6.20;3.67;;;;;13.30;98124.00;;;;5033774;28;20049;-66
2023/10/23 10:24:39;;;;;;;9.43;4.13;;;;;13.40;98123.00;;;;5034328;28;20054;-67
2023/10/23 10:27:06;;;;;;;11.30;3.83;;;;;13.50;98118.00;;;;5034955;28;20543;-67
2023/10/23 10:29:33;;;;;;;9.85;3.92;;;;;13.50;98106.00;;;;5033334;28;20045;-67
2023/10/23 10:32:09;;;;;;;10.55;3.83;;;;;13.60;98112.00;;;;5016951;28;20079;-66
2023/10/23 10:34:44;;;;;;;9.13;3.50;;;;;13.70;98113.00;;;;5034009;28;20049;-67
2023/10/23 10:37:12;;;;;;;6.03;2.95;;;;;13.70;98108.00;;;;5035402;28;20053;-67
2023/10/23 10:39:52;;;;;;;11.55;3.33;;;;;13.70;98099.00;;;;5033263;28;20413;-66
2023/10/23 10:42:22;;;;;;;6.30;2.70;;;;;13.70;98104.00;;;;5033470;28;20045;-67
2023/10/23 10:44:52;;;;;;;8.93;2.53;;;;;13.80;98099.00;;;;5032154;28;20128;-67
2023/10/23 10:47:19;;;;;;;7.32;3.47;;;;;13.90;98112.00;;;;5017626;28;20069;-66
2023/10/23 10:49:47;;;;;;;6.25;3.00;;;;;14.00;98105.00;;;;5033528;28;20064;-66
2023/10/23 10:52:32;;;;;;;6.78;3.38;;;;;14.00;98093.00;;;;5032898;28;20053;-66
2023/10/23 10:55:04;;;;;;;11.05;2.97;;;;;14.00;98089.00;;;;5033595;28;20087;-65
2023/10/23 10:57:31;;;;;;;9.38;3.05;;;;;14.10;98084.00;;;;5033947;28;20045;-65
2023/10/23 10:59:58;;;;;;;9.13;2.70;;;;;14.10;98081.00;;;;5032536;28;20072;-66
2023/10/23 11:02:26;;;;;;;4.65;2.15;;;;;14.10;98070.00;;;;5032808;28;20042;-66
2023/10/23 11:04:52;;;;;;;4.80;1.75;;;;;14.10;98062.00;;;;5032058;28;20077;-66
2023/10/23 11:07:26;;;;;;;6.53;2.33;;;;;14.10;98062.00;;;;5033944;28;20410;-66
2023/10/23 11:09:53;;;;;;;;;;;;;14.10;98053.00;;;;5032951;28;20057;-67
2023/10/23 11:12:21;;;;;;;5.22;2.10;;;;;14.10;98061.00;;;;5032863;28;20297;-66
2023/10/23 11:14:48;;;;;;;5.43;2.20;;;;;14.10;98055.00;;;;5033123;28;20037;-65
2023/10/23 11:17:15;;;;;;;6.55;2.10;;;;;14.20;98056.00;;;;5032540;28;20072;-66
2023/10/23 11:19:43;;;;;;;8.75;2.08;;;;;14.20;98046.00;;;;5033609;28;20075;-67
2023/10/23 11:22:15;;;;;;;5.95;2.65;;;;;14.20;98038.00;;;;5032291;28;20044;-67
2023/10/23 11:24:42;;;;;;;7.68;2.47;;;;;14.30;98038.00;;;;5031800;28;20049;-67
2023/10/23 11:27:09;;;;;;;6.05;2.25;;;;;14.40;98031.00;;;;5032119;28;20578;-66
2023/10/23 11:29:43;;;;;;;7.13;2.42;;;;;14.40;98030.00;;;;5033175;28;20073;-66
2023/10/23 11:32:14;;;;;;;6.75;2.42;;;;;14.40;98025.00;;;;5033541;28;20051;-67
2023/10/23 11:34:41;;;;;;;5.75;2.10;;;;;14.50;98021.00;;;;5032725;28;20095;-67
2023/10/23 11:37:10;;;;;;;6.78;2.38;;;;;14.50;98009.00;;;;5031975;28;20503;-67
2023/10/23 11:39:39;;;;;;;4.72;2.05;;;;;14.60;98000.00;;;;5031878;28;20042;-68
2023/10/23 11:42:06;;;;;;;4.50;2.00;;;;;14.60;97996.00;;;;5031907;28;20111;-67
2023/10/23 11:44:34;;;;;;;3.67;1.83;;;;;14.80;97988.00;;;;5031651;28;20076;-67
2023/10/23 11:47:04;;;;;;;11.63;6.18;;;;;14.80;97984.00;;;;5032036;28;20403;-66
2023/10/23 11:49:34;;;;;;;6.07;3.00;;;;;14.80;97968.00;;;;5032744;28;20053;-66
2023/10/23 11:52:01;;;;;;;6.28;2.28;;;;;14.90;97972.00;;;;5015631;28;20053;-67
2023/10/23 11:54:28;;;;;;;7.07;2.17;;;;;14.90;97963.00;;;;5031268;28;20045;-67
2023/10/23 11:56:56;;;;;;;3.78;1.90;;;;;15.10;97952.00;;;;5031700;28;20414;-66
2023/10/23 11:59:25;;;;;;;5.40;1.88;;;;;15.10;97952.00;;;;5031462;28;20144;-66
2023/10/23 12:01:54;;;;;;;5.43;1.98;;;;;15.30;97956.00;;;;5032808;28;20057;-66
2023/10/23 12:04:21;;;;;;;5.63;2.08;;;;;15.30;97944.00;;;;5032159;28;20049;-67
2023/10/23 12:06:48;;;;;;;7.30;1.80;;;;;15.40;97947.00;;;;5032542;28;20099;-66
2023/10/23 12:09:14;;;;;;;4.68;1.80;;;;;15.60;97936.00;;;;5032666;28;20053;-66
2023/10/23 12:11:41;;;;;;;5.43;2.00;;;;;15.60;97936.00;;;;5032683;28;20124;-66
2023/10/23 12:14:08;;;;;;;3.63;1.65;;;;;15.60;97932.00;;;;5030862;28;20044;-65
2023/10/23 12:16:35;;;;;;;3.40;1.65;;;;;15.50;97926.00;;;;5031327;28;20054;-65
2023/10/23 12:19:01;;;;;;;4.03;1.50;;;;;15.60;97929.00;;;;5031494;28;20057;-65
2023/10/23 12:21:28;;;;;;;7.43;1.83;;;;;15.60;97942.00;;;;5032613;28;20429;-66
2023/10/23 12:23:55;;;;;;;7.93;1.90;;;;;15.60;97962.00;;;;5030903;28;20141;-65
2023/10/23 12:26:22;;;;;;;6.00;1.63;;;;;15.70;97963.00;;;;5031093;28;20118;-65